Time;durP1;ratioP1;P1;durP2;ratioP2;P2;SDS_P1;SDS_P2;PMS_P1;PMS_P2;Temp;Humidity;BMP_temperature;BMP_pressure;BME280_temperature;BME280_humidity;BME280_pressure;Samples;Min_cycle;Max_cycle;Signal;HPM_P1;HPM_P2
2022/09/05 00:03:51;;;;;;;2.97;2.15;;;;;;;18.94;64.89;101916.41;20850762;28;20040;-61
2022/09/05 00:14:19;;;;;;;4.13;2.28;;;;;;;18.84;64.54;101910.19;20842168;28;20071;-62
2022/09/05 00:25:28;;;;;;;6.63;2.03;;;;;;;18.82;64.94;101917.41;20837252;28;20051;-64
2022/09/05 00:36:02;;;;;;;5.40;2.00;;;;;;;18.65;64.81;101910.00;20847598;28;20034;-62
2022/09/05 00:46:31;;;;;;;3.28;2.00;;;;;;;18.62;65.86;101907.63;20850252;28;20486;-62
2022/09/05 00:57:01;;;;;;;3.25;2.40;;;;;;;18.60;65.35;101899.00;20836053;28;20049;-63
2022/09/05 01:07:45;;;;;;;5.43;2.50;;;;;;;18.63;65.79;101896.06;20840929;28;20634;-62
2022/09/05 01:18:22;;;;;;;9.32;2.20;;;;;;;18.60;65.62;101891.06;20814798;28;20627;-62
2022/09/05 01:28:54;;;;;;;2.45;1.95;;;;;;;18.54;65.83;101893.38;20840825;28;20501;-62
2022/09/05 01:39:54;;;;;;;3.10;2.10;;;;;;;18.41;66.33;101890.84;20845599;28;20354;-63
2022/09/05 01:50:45;;;;;;;;;;;;;;;18.40;65.71;101893.63;20829834;28;20057;-63
2022/09/05 02:01:19;;;;;;;4.23;2.30;;;;;;;18.33;66.24;101888.97;20840967;28;19984;-63
2022/09/05 02:11:52;;;;;;;5.18;2.08;;;;;;;18.28;66.74;101883.19;20841649;28;20103;-63
2022/09/05 02:22:21;;;;;;;5.03;2.20;;;;;;;18.21;66.51;101888.09;20830814;28;20048;-63
2022/09/05 02:33:08;;;;;;;4.93;2.35;;;;;;;18.27;66.43;101886.78;20839417;28;20696;-62
2022/09/05 02:43:57;;;;;;;5.07;2.22;;;;;;;18.16;67.84;101884.16;20827835;28;20049;-62
2022/09/05 02:54:43;;;;;;;3.15;1.88;;;;;;;18.07;67.01;101880.44;20826301;28;20148;-62
2022/09/05 03:05:47;;;;;;;6.00;2.10;;;;;;;18.21;66.50;101884.59;20850439;28;20045;-62
2022/09/05 03:16:38;;;;;;;2.33;1.80;;;;;;;18.05;67.37;101884.97;20830207;28;20055;-62
2022/09/05 03:27:26;;;;;;;3.72;2.30;;;;;;;17.93;67.96;101877.19;20821900;28;20037;-63
2022/09/05 03:38:08;;;;;;;3.50;1.92;;;;;;;17.94;68.44;101868.31;20831420;28;20483;-64
2022/09/05 03:48:58;;;;;;;3.50;1.92;;;;;;;17.86;68.23;101876.00;20823760;28;20052;-63
2022/09/05 04:00:07;;;;;;;4.10;2.83;;;;;;;17.85;68.53;101879.59;20822524;28;20056;-63
2022/09/05 04:10:41;;;;;;;3.80;2.30;;;;;;;17.81;69.28;101891.31;20832690;28;20045;-63
2022/09/05 04:21:15;;;;;;;3.17;2.50;;;;;;;17.76;69.11;101886.41;20855630;28;20049;-63
2022/09/05 04:32:01;;;;;;;3.78;2.60;;;;;;;17.69;69.22;101894.91;20841859;28;20041;-63
2022/09/05 04:42:39;;;;;;;6.68;2.55;;;;;;;17.55;70.44;101897.78;20850832;28;20052;-62
2022/09/05 04:53:01;;;;;;;7.25;2.63;;;;;;;17.47;70.19;101903.63;20840005;28;20037;-63
2022/09/05 05:03:31;;;;;;;6.32;2.72;;;;;;;17.50;70.70;101921.00;20852999;28;20109;-62
2022/09/05 05:14:25;;;;;;;4.53;2.58;;;;;;;17.52;70.63;101929.66;20840357;28;20038;-62
2022/09/05 05:25:11;;;;;;;11.15;2.80;;;;;;;17.47;70.82;101942.31;20841159;28;20421;-61
2022/09/05 05:35:33;;;;;;;5.38;2.67;;;;;;;17.59;70.73;101941.44;20849317;28;20054;-63
2022/09/05 05:46:25;;;;;;;5.18;2.90;;;;;;;17.56;70.85;101957.47;20842510;28;20049;-62
2022/09/05 05:57:07;;;;;;;12.35;2.90;;;;;;;17.85;70.39;101948.19;20840080;28;20112;-62
2022/09/05 06:07:57;;;;;;;5.85;2.78;;;;;;;17.95;69.59;101967.63;20833825;28;20256;-63
2022/09/05 06:19:04;;;;;;;7.30;2.72;;;;;;;18.16;70.29;101963.34;20839480;28;20053;-63
2022/09/05 06:29:54;;;;;;;7.00;2.85;;;;;;;18.17;70.28;101954.47;20826963;28;20051;-62
2022/09/05 06:40:57;;;;;;;12.23;2.97;;;;;;;18.34;69.73;101969.84;20839316;28;20059;-62
2022/09/05 06:51:40;;;;;;;11.43;3.13;;;;;;;18.24;70.04;101964.44;20831324;28;20051;-62
2022/09/05 07:02:22;;;;;;;7.25;2.72;;;;;;;18.55;69.51;101967.19;20832913;28;20085;-62
2022/09/05 07:13:36;;;;;;;4.38;2.55;;;;;;;18.62;70.36;101963.09;20819413;28;20398;-63
2022/09/05 07:24:17;;;;;;;14.35;3.28;;;;;;;19.07;67.41;101969.94;20812418;28;20053;-64
2022/09/05 07:35:02;;;;;;;34.30;4.03;;;;;;;19.48;66.42;101976.19;20828220;28;20053;-63
2022/09/05 07:45:27;;;;;;;41.45;5.65;;;;;;;19.51;66.02;101975.06;20818932;28;20045;-63
2022/09/05 07:55:55;;;;;;;65.15;7.47;;;;;;;19.74;65.80;101971.34;20822070;28;20053;-63
2022/09/05 08:06:39;;;;;;;6.63;2.70;;;;;;;20.07;65.32;101971.19;20839197;28;20045;-64
2022/09/05 08:17:24;;;;;;;6.70;2.67;;;;;;;20.13;65.63;101963.53;20861371;28;20053;-64
2022/09/05 08:28:02;;;;;;;6.47;2.70;;;;;;;20.22;66.96;101954.78;20831184;28;20116;-64
2022/09/05 08:38:27;;;;;;;7.93;2.85;;;;;;;20.67;65.44;101964.03;20848111;28;20051;-64
2022/09/05 08:49:26;;;;;;;4.13;2.47;;;;;;;21.05;64.61;101964.97;20822952;28;20077;-64
2022/09/05 09:00:07;;;;;;;4.00;2.90;;;;;;;21.57;61.85;101962.75;20820244;28;20041;-63
2022/09/05 09:10:56;;;;;;;11.32;3.80;;;;;;;21.87;62.25;101951.09;20798133;28;20124;-62
2022/09/05 09:21:29;;;;;;;4.05;2.55;;;;;;;22.34;59.61;101950.13;20793448;28;20139;-62
2022/09/05 09:31:57;;;;;;;3.30;2.80;;;;;;;22.38;60.76;101950.53;20814385;28;20041;-62
2022/09/05 09:42:46;;;;;;;15.88;3.90;;;;;;;22.48;61.65;101938.03;20815944;28;20041;-62
2022/09/05 09:53:14;;;;;;;5.28;2.70;;;;;;;22.76;59.85;101923.72;20806028;28;20041;-62
2022/09/05 10:04:18;;;;;;;6.38;2.40;;;;;;;23.02;59.95;101919.31;20825538;28;20144;-65
2022/09/05 10:15:27;;;;;;;6.20;2.70;;;;;;;23.20;60.54;101906.88;20822930;28;21218;-66
2022/09/05 10:26:29;;;;;;;4.22;2.53;;;;;;;24.00;56.01;101907.50;20825736;28;20696;-62
2022/09/05 10:36:58;;;;;;;5.75;2.58;;;;;;;23.88;58.48;101900.72;20802777;28;20502;-62
2022/09/05 10:47:40;;;;;;;5.80;2.40;;;;;;;24.33;56.19;101901.28;20813475;28;20037;-63
2022/09/05 10:58:42;;;;;;;3.67;2.40;;;;;;;24.26;57.44;101892.28;20808364;28;20061;-62
2022/09/05 11:09:31;;;;;;;3.40;2.05;;;;;;;24.83;54.23;101877.13;20829834;28;20048;-63
2022/09/05 11:20:19;;;;;;;4.37;2.47;;;;;;;25.16;53.88;101873.50;20832688;28;20064;-64
2022/09/05 11:30:57;;;;;;;3.13;2.30;;;;;;;25.16;54.47;101854.81;20827465;28;20053;-62
2022/09/05 11:42:01;;;;;;;3.83;2.30;;;;;;;25.42;53.73;101858.13;20818817;28;20046;-62
2022/09/05 11:53:00;;;;;;;3.13;2.03;;;;;;;25.80;52.93;101849.38;20810345;28;20505;-61
2022/09/05 12:03:25;;;;;;;5.53;2.10;;;;;;;25.91;54.16;101854.34;20815220;28;20046;-62
2022/09/05 12:14:22;;;;;;;3.30;2.08;;;;;;;26.21;51.48;101842.84;20839756;28;20052;-63
2022/09/05 12:25:08;;;;;;;4.53;2.10;;;;;;;26.69;50.26;101835.44;20816812;28;20033;-63
2022/09/05 12:36:34;;;;;;;3.53;1.70;;;;;;;26.78;50.85;101827.13;20813373;28;20049;-63
2022/09/05 12:47:20;;;;;;;2.10;1.85;;;;;;;26.33;51.95;101825.44;20822836;28;20037;-63
2022/09/05 12:57:44;;;;;;;3.65;1.70;;;;;;;26.58;52.17;101815.25;20824846;28;20721;-63
2022/09/05 13:08:38;;;;;;;2.13;1.70;;;;;;;26.42;50.96;101818.03;20833724;28;20038;-63
2022/09/05 13:19:06;;;;;;;1.65;1.55;;;;;;;26.26;53.24;101801.22;20810512;28;20379;-65
2022/09/05 13:29:57;;;;;;;1.80;1.70;;;;;;;26.46;51.50;101807.81;20814659;28;20041;-67
2022/09/05 13:40:44;;;;;;;2.05;1.70;;;;;;;26.34;52.29;101793.97;20817624;28;20421;-66
2022/09/05 13:51:26;;;;;;;5.85;1.60;;;;;;;26.56;50.01;101782.50;20815759;28;20065;-66
2022/09/05 14:01:58;;;;;;;3.38;1.90;;;;;;;26.64;49.95;101782.41;20800269;28;20049;-67
2022/09/05 14:12:47;;;;;;;8.85;1.98;;;;;;;26.79;47.56;101771.78;20802073;28;20041;-68
2022/09/05 14:23:14;;;;;;;3.97;1.50;;;;;;;26.51;49.46;101763.47;20810641;28;20037;-66
2022/09/05 14:33:36;;;;;;;4.32;1.63;;;;;;;27.04;47.34;101766.06;20806904;28;20119;-65
2022/09/05 14:44:33;;;;;;;2.38;1.55;;;;;;;27.18;48.48;101756.38;20799370;28;20045;-66
2022/09/05 14:54:57;;;;;;;3.45;1.90;;;;;;;26.82;49.08;101742.78;20801512;28;20046;-63
2022/09/05 15:05:46;;;;;;;3.28;1.85;;;;;;;27.02;49.72;101733.25;20808750;28;20049;-65
2022/09/05 15:16:11;;;;;;;4.03;2.17;;;;;;;26.97;49.44;101727.59;20808455;28;20049;-65
2022/09/05 15:26:34;;;;;;;9.77;2.40;;;;;;;26.76;50.16;101730.16;20810957;28;20042;-63
2022/09/05 15:36:44;;;;;;;4.50;2.17;;;;;;;26.80;50.14;101728.75;20811877;28;20058;-64
2022/09/05 15:47:09;;;;;;;7.53;2.45;;;;;;;26.76;50.48;101730.16;20810264;28;20713;-65
2022/09/05 15:57:35;;;;;;;4.93;2.50;;;;;;;26.38;51.83;101717.72;20816048;28;20051;-66
2022/09/05 16:08:08;;;;;;;11.88;2.38;;;;;;;26.73;50.85;101711.78;20801866;28;20532;-64
2022/09/05 16:18:52;;;;;;;3.83;2.13;;;;;;;26.94;50.70;101706.53;20846707;28;20037;-65
2022/09/05 16:29:46;;;;;;;4.45;2.25;;;;;;;27.14;50.59;101713.06;20831622;28;20049;-63
2022/09/05 16:40:14;;;;;;;3.60;1.98;;;;;;;26.87;50.80;101700.25;20841272;28;20146;-64
2022/09/05 16:51:10;;;;;;;4.63;2.28;;;;;;;26.58;51.49;101699.34;20835779;28;20548;-64
2022/09/05 17:02:02;;;;;;;6.35;2.20;;;;;;;26.28;51.67;101692.22;20836784;28;20060;-61
2022/09/05 17:12:30;;;;;;;3.40;2.20;;;;;;;26.34;51.27;101690.69;20831313;28;20069;-61
2022/09/05 17:23:30;;;;;;;6.53;2.35;;;;;;;25.88;53.48;101683.66;20812558;28;20077;-61
2022/09/05 17:34:15;;;;;;;3.60;2.10;;;;;;;25.37;54.48;101684.22;20828021;28;20792;-62
2022/09/05 17:44:42;;;;;;;5.75;2.50;;;;;;;25.34;53.91;101695.22;20804418;28;20057;-61
2022/09/05 17:55:12;;;;;;;6.93;2.58;;;;;;;25.02;54.47;101703.34;20826635;28;20037;-62
2022/09/05 18:05:59;;;;;;;6.50;2.65;;;;;;;24.72;55.28;101704.03;20824426;28;20053;-61
2022/09/05 18:16:37;;;;;;;8.02;2.70;;;;;;;24.53;55.28;101714.19;20826151;28;20053;-62
2022/09/05 18:27:33;;;;;;;7.65;2.72;;;;;;;24.26;55.48;101727.00;20821235;28;20049;-62
2022/09/05 18:38:24;;;;;;;4.70;2.72;;;;;;;24.17;54.85;101727.97;20816309;28;20045;-62
2022/09/05 18:49:14;;;;;;;8.95;2.90;;;;;;;23.92;55.77;101747.56;20796388;28;20040;-61
2022/09/05 19:00:04;;;;;;;4.63;2.30;;;;;;;23.77;55.38;101746.50;20805426;28;20390;-61
2022/09/05 19:10:34;;;;;;;7.95;2.65;;;;;;;23.57;56.11;101751.25;20819315;28;20399;-61
2022/09/05 19:21:14;;;;;;;8.15;2.20;;;;;;;23.44;56.15;101752.66;20819258;28;20038;-62
2022/09/05 19:31:42;;;;;;;9.95;2.50;;;;;;;23.20;56.16;101747.22;20813481;28;20065;-61
2022/09/05 19:42:23;;;;;;;8.38;2.50;;;;;;;23.13;56.96;101740.00;20804349;28;20046;-61
2022/09/05 19:53:06;;;;;;;7.35;2.60;;;;;;;23.13;56.16;101745.34;20828147;28;20045;-61
2022/09/05 20:03:31;;;;;;;6.07;2.60;;;;;;;22.76;57.93;101745.53;20818045;28;20041;-60
2022/09/05 20:14:23;;;;;;;11.88;2.63;;;;;;;22.68;57.68;101745.50;20815821;28;20045;-63
2022/09/05 20:24:49;;;;;;;7.55;2.20;;;;;;;22.43;58.77;101746.25;20814842;28;20053;-63
2022/09/05 20:35:26;;;;;;;9.05;2.53;;;;;;;22.32;59.19;101742.13;20815373;28;20060;-62
2022/09/05 20:46:09;;;;;;;8.10;2.40;;;;;;;22.05;58.92;101744.84;20832445;28;20052;-68
2022/09/05 20:56:53;;;;;;;8.40;2.50;;;;;;;21.99;59.35;101740.09;20819667;28;20552;-63
2022/09/05 21:07:36;;;;;;;5.88;2.40;;;;;;;21.78;59.20;101742.22;20838282;28;20045;-64
2022/09/05 21:18:31;;;;;;;6.55;2.10;;;;;;;21.84;59.73;101741.59;20810486;28;20513;-63
2022/09/05 21:29:24;;;;;;;4.28;2.17;;;;;;;21.59;59.30;101732.53;20810597;28;20045;-64
2022/09/05 21:39:53;;;;;;;5.60;2.13;;;;;;;21.49;59.21;101721.06;20816010;28;20069;-64
2022/09/05 21:50:22;;;;;;;5.28;2.15;;;;;;;21.38;59.02;101715.16;20829524;28;20041;-66
2022/09/05 22:00:52;;;;;;;3.67;2.20;;;;;;;21.43;59.10;101705.75;20809802;28;20049;-64
2022/09/05 22:11:13;;;;;;;4.25;2.30;;;;;;;21.16;59.62;101699.56;20808319;28;20640;-64
2022/09/05 22:21:38;;;;;;;4.05;2.35;;;;;;;21.31;58.82;101695.47;20776178;28;20057;-64
2022/09/05 22:32:00;;;;;;;4.13;2.28;;;;;;;21.23;59.51;101687.41;20803286;28;20700;-64
2022/09/05 22:42:21;;;;;;;7.43;2.80;;;;;;;21.19;58.63;101680.72;20823770;28;20525;-64
2022/09/05 22:52:43;;;;;;;3.03;2.50;;;;;;;21.22;59.06;101664.53;20811657;28;20049;-65
2022/09/05 23:03:06;;;;;;;5.85;2.45;;;;;;;21.19;58.81;101670.13;20804415;28;20406;-64
2022/09/05 23:13:27;;;;;;;4.22;2.30;;;;;;;21.13;58.94;101649.47;20812275;28;20033;-63
2022/09/05 23:23:53;;;;;;;3.38;2.33;;;;;;;20.90;59.73;101648.19;20826925;28;20056;-63
2022/09/05 23:34:15;;;;;;;5.90;2.55;;;;;;;20.69;60.70;101644.03;20795587;28;20056;-63
2022/09/05 23:44:37;;;;;;;7.82;2.78;;;;;;;20.44;61.48;101637.50;20813390;28;20498;-64
2022/09/05 23:54:58;;;;;;;4.03;2.78;;;;;;;20.19;63.07;101623.19;20807955;28;20148;-64
